Big Bear Station Historical Data
Daily Summary for June 29, 2019 Units:  English    Metric   Both
Next Day »
Daily Weekly Monthly Yearly Custom
  High: Low: Average:
Temperature: 75.6 °F 48.2 °F 61.7 °F
Dew Point: 43 °F 16.4 °F 27.5 °F
Humidity: 56% 15% 29%
Wind Speed: 5.3mph 0mph 0.3mph
Wind Gust: -999mph - -
Wind- - NW
Pressure: 23.64 in 23.58 in -
Precipitation: 0 in    
Historical Graphs
 
 
Tabular Data for June 29, 2019
Time Temperature Dew Point Pressure Wind Wind Speed Wind Gust Humidity Rainfall Rate (Hourly)
00:03 52.7 °F 25.1 °F 23.60 in Calm   -999 mph 34% 0.00 in
00:18 52.7 °F 22.1 °F 23.59 in Calm   -999 mph 30% 0.00 in
00:33 52.9 °F 20.7 °F 23.59 in Calm   -999 mph 28% 0.00 in
00:48 52.5 °F 21.9 °F 23.59 in Calm   -999 mph 30% 0.00 in
01:04 52.3 °F 22.5 °F 23.59 in Calm   -999 mph 31% 0.00 in
01:19 52 °F 21.5 °F 23.59 in Calm   -999 mph 30% 0.00 in
01:34 51.6 °F 18.7 °F 23.59 in Calm   -999 mph 27% 0.00 in
01:49 50.9 °F 21.3 °F 23.59 in Calm   -999 mph 31% 0.00 in
02:05 50.4 °F 21.6 °F 23.58 in Calm   -999 mph 32% 0.00 in
02:20 50 °F 23.4 °F 23.58 in Calm   -999 mph 35% 0.00 in
02:35 49.6 °F 23 °F 23.58 in Calm   -999 mph 35% 0.00 in
02:50 48.9 °F 25 °F 23.58 in Calm   -999 mph 39% 0.00 in
03:05 48.7 °F 22.9 °F 23.58 in Calm   -999 mph 36% 0.00 in
03:21 48.6 °F 24.7 °F 23.58 in Calm   -999 mph 39% 0.00 in
03:36 48.6 °F 27.7 °F 23.58 in Calm   -999 mph 44% 0.00 in
03:51 48.4 °F 28.6 °F 23.58 in Calm   -999 mph 46% 0.00 in
04:06 48.2 °F 25.6 °F 23.58 in Calm   -999 mph 41% 0.00 in
04:21 48.2 °F 24.4 °F 23.58 in Calm   -999 mph 39% 0.00 in
04:37 48.7 °F 28.3 °F 23.58 in Calm   -999 mph 45% 0.00 in
04:52 48.9 °F 30.1 °F 23.58 in Calm   -999 mph 48% 0.00 in
05:07 48.9 °F 22.4 °F 23.58 in Calm   -999 mph 35% 0.00 in
05:22 49.5 °F 27.3 °F 23.58 in Calm   -999 mph 42% 0.00 in
05:38 50.4 °F 32.5 °F 23.59 in Calm   -999 mph 50% 0.00 in
05:53 50.4 °F 31.4 °F 23.58 in Calm   -999 mph 48% 0.00 in
06:09 50.4 °F 27.6 °F 23.59 in Calm   -999 mph 41% 0.00 in
06:24 50.5 °F 32 °F 23.59 in Calm   -999 mph 49% 0.00 in
06:39 50.9 °F 34.8 °F 23.59 in Calm   -999 mph 54% 0.00 in
06:54 52.3 °F 37.1 °F 23.59 in Calm   -999 mph 56% 0.00 in
07:09 52.7 °F 37 °F 23.59 in Calm   -999 mph 55% 0.00 in
07:25 54.5 °F 38.2 °F 23.60 in Calm   -999 mph 54% 0.00 in
07:40 55.9 °F 40 °F 23.61 in Calm   -999 mph 55% 0.00 in
07:55 57 °F 41.5 °F 23.61 in Calm   -999 mph 56% 0.00 in
08:11 59.2 °F 43 °F 23.61 in Calm   -999 mph 55% 0.00 in
08:26 62.1 °F 35.5 °F 23.61 in Calm   -999 mph 37% 0.00 in
08:41 64.6 °F 30.7 °F 23.61 in Calm   -999 mph 28% 0.00 in
08:57 66 °F 30.1 °F 23.61 in Calm   -999 mph 26% 0.00 in
09:12 66.6 °F 29.7 °F 23.62 in Calm   -999 mph 25% 0.00 in
09:27 67.1 °F 30.1 °F 23.62 in Calm   -999 mph 25% 0.00 in
09:43 65.7 °F 28.9 °F 23.62 in Calm   -999 mph 25% 0.00 in
09:58 66.4 °F 26.4 °F 23.62 in Calm   -999 mph 22% 0.00 in
10:13 67.1 °F 27 °F 23.62 in Calm   -999 mph 22% 0.00 in
10:28 68.7 °F 26 °F 23.62 in Calm   -999 mph 20% 0.00 in
10:43 69.6 °F 26.7 °F 23.62 in Calm   -999 mph 20% 0.00 in
10:59 70.3 °F 24.8 °F 23.62 in Calm   -999 mph 18% 0.00 in
11:14 70.7 °F 28.8 °F 23.63 in NW 1.1 mph -999 mph 21% 0.00 in
11:29 71.8 °F 28.6 °F 23.63 in Calm   -999 mph 20% 0.00 in
11:44 70.7 °F 27.7 °F 23.63 in NW 1.1 mph -999 mph 20% 0.00 in
12:00 72.3 °F 27.7 °F 23.63 in NW 1.7 mph -999 mph 19% 0.00 in
12:15 71.2 °F 24.1 °F 23.63 in Calm   -999 mph 17% 0.00 in
12:30 73 °F 27 °F 23.64 in Calm   -999 mph 18% 0.00 in
12:45 75 °F 28.6 °F 23.64 in NW 2.7 mph -999 mph 18% 0.00 in
13:00 75.6 °F 29.1 °F 23.64 in Calm   -999 mph 18% 0.00 in
13:16 73.6 °F 23.1 °F 23.64 in Calm   -999 mph 15% 0.00 in
13:31 75 °F 25.8 °F 23.64 in Calm   -999 mph 16% 0.00 in
13:46 72.7 °F 26.7 °F 23.63 in WNW 4.2 mph -999 mph 18% 0.00 in
14:01 70.3 °F 26.1 °F 23.63 in NNW 4.7 mph -999 mph 19% 0.00 in
14:16 72 °F 26.2 °F 23.64 in NNW 2.2 mph -999 mph 18% 0.00 in
14:32 72.1 °F 28.8 °F 23.63 in Calm   -999 mph 20% 0.00 in
14:47 73.8 °F 29 °F 23.63 in Calm   -999 mph 19% 0.00 in
15:02 71.6 °F 25.8 °F 23.63 in Calm   -999 mph 18% 0.00 in
15:17 72.7 °F 28.1 °F 23.63 in NNW 4.2 mph -999 mph 19% 0.00 in
15:32 72.9 °F 28.2 °F 23.63 in Calm   -999 mph 19% 0.00 in
15:48 72.7 °F 28.1 °F 23.62 in Calm   -999 mph 19% 0.00 in
16:03 71.2 °F 30.4 °F 23.62 in Calm   -999 mph 22% 0.00 in
16:18 70 °F 31.5 °F 23.62 in Calm   -999 mph 24% 0.00 in
16:33 74.1 °F 31.7 °F 23.62 in Calm   -999 mph 21% 0.00 in
16:49 73.8 °F 30.2 °F 23.62 in Calm   -999 mph 20% 0.00 in
17:04 71.4 °F 29.4 °F 23.62 in Calm   -999 mph 21% 0.00 in
17:19 73.4 °F 29.9 °F 23.61 in Calm   -999 mph 20% 0.00 in
17:34 70.2 °F 28.4 °F 23.61 in Calm   -999 mph 21% 0.00 in
17:49 70.7 °F 30 °F 23.61 in NW 5.3 mph -999 mph 22% 0.00 in
18:05 69.1 °F 31.8 °F 23.61 in Calm   -999 mph 25% 0.00 in
18:20 66.6 °F 29.7 °F 23.61 in Calm   -999 mph 25% 0.00 in
18:35 65.1 °F 30.3 °F 23.61 in Calm   -999 mph 27% 0.00 in
18:50 64.2 °F 33.7 °F 23.62 in Calm   -999 mph 32% 0.00 in
19:05 64.2 °F 34.5 °F 23.62 in Calm   -999 mph 33% 0.00 in
19:21 63.9 °F 34.2 °F 23.62 in Calm   -999 mph 33% 0.00 in
19:36 62.8 °F 34.7 °F 23.62 in Calm   -999 mph 35% 0.00 in
19:51 61.9 °F 34.6 °F 23.62 in Calm   -999 mph 36% 0.00 in
20:06 61.5 °F 30.6 °F 23.62 in Calm   -999 mph 31% 0.00 in
20:21 61.3 °F 28.8 °F 23.62 in Calm   -999 mph 29% 0.00 in
20:37 61.2 °F 20.9 °F 23.62 in Calm   -999 mph 21% 0.00 in
20:52 61.2 °F 24.1 °F 23.62 in Calm   -999 mph 24% 0.00 in
21:07 60.6 °F 24.6 °F 23.62 in Calm   -999 mph 25% 0.00 in
21:22 60.3 °F 19 °F 23.63 in Calm   -999 mph 20% 0.00 in
21:37 60.1 °F 16.4 °F 23.63 in Calm   -999 mph 18% 0.00 in
21:53 60.1 °F 17.7 °F 23.63 in Calm   -999 mph 19% 0.00 in
22:08 59.9 °F 17.5 °F 23.63 in Calm   -999 mph 19% 0.00 in
22:23 59.9 °F 17.5 °F 23.63 in Calm   -999 mph 19% 0.00 in
22:38 59.9 °F 19.8 °F 23.63 in Calm   -999 mph 21% 0.00 in
22:53 59.7 °F 19.7 °F 23.63 in Calm   -999 mph 21% 0.00 in
23:09 59.9 °F 23 °F 23.62 in Calm   -999 mph 24% 0.00 in
23:24 59.7 °F 19.7 °F 23.63 in Calm   -999 mph 21% 0.00 in
23:39 59.4 °F 26.3 °F 23.63 in Calm   -999 mph 28% 0.00 in
23:54 59.2 °F 27.8 °F 23.62 in Calm   -999 mph 30% 0.00 in
Big Bear CA Weather